Time;durP1;ratioP1;P1;durP2;ratioP2;P2;SDS_P1;SDS_P2;PMS_P1;PMS_P2;Temp;Humidity;BMP_temperature;BMP_pressure;BME280_temperature;BME280_humidity;BME280_pressure;Samples;Min_cycle;Max_cycle;Signal;HPM_P1;HPM_P2
2022/03/04 00:02:00;;;;;;;75.25;41.10;;;77.00;2227.20;;;;;;5069599;28;20441;-57
2022/03/04 00:04:26;;;;;;;49.95;27.48;;;77.00;2227.20;;;;;;5069795;28;20382;-62
2022/03/04 00:06:54;;;;;;;30.30;18.70;;;76.80;2227.20;;;;;;5069670;28;20029;-57
2022/03/04 00:09:20;;;;;;;30.60;18.30;;;52.10;2227.20;;;;;;5069520;28;20105;-57
2022/03/04 00:11:47;;;;;;;34.92;18.30;;;51.80;2227.20;;;;;;5069437;28;20027;-57
2022/03/04 00:14:13;;;;;;;30.95;20.35;;;51.60;2227.20;;;;;;5069460;28;20032;-59
2022/03/04 00:16:39;;;;;;;32.72;17.08;;;51.70;2227.20;;;;;;5071697;28;20028;-57
2022/03/04 00:19:09;;;;;;;29.40;18.42;;;51.70;2227.20;;;;;;5073108;28;20425;-59
2022/03/04 00:21:43;;;;;;;42.63;23.17;;;51.50;2227.20;;;;;;5073171;28;20500;-57
2022/03/04 00:24:10;;;;;;;40.78;23.70;;;51.40;2227.20;;;;;;5073185;28;20103;-56
2022/03/04 00:26:37;;;;;;;44.80;24.95;;;51.70;2227.20;;;;;;5072701;28;20048;-57
2022/03/04 00:29:03;;;;;;;50.97;30.35;;;51.70;2227.20;;;;;;5073113;28;20043;-56
2022/03/04 00:31:29;;;;;;;48.45;29.13;;;51.70;2227.20;;;;;;5072978;28;20019;-57
2022/03/04 00:33:55;;;;;;;49.20;28.25;;;51.80;2227.20;;;;;;5072852;28;20044;-58
2022/03/04 00:36:24;;;;;;;51.30;31.20;;;51.70;2227.20;;;;;;5073082;28;20082;-57
2022/03/04 00:38:51;;;;;;;53.85;31.23;;;51.70;2227.20;;;;;;5072733;28;20483;-63
2022/03/04 00:41:18;;;;;;;37.15;21.73;;;51.30;2227.20;;;;;;5072781;28;20062;-56
2022/03/04 00:43:45;;;;;;;37.75;24.15;;;26.40;2201.60;;;;;;5072914;28;20028;-58
2022/03/04 00:46:11;;;;;;;36.90;22.63;;;26.10;2201.60;;;;;;5073034;28;20016;-63
2022/03/04 00:48:38;;;;;;;33.80;19.27;;;26.10;2201.60;;;;;;5072606;28;20036;-57
2022/03/04 00:51:04;;;;;;;31.50;18.58;;;26.00;2201.60;;;;;;5072802;28;20027;-57
2022/03/04 00:53:30;;;;;;;36.53;20.02;;;26.00;2201.60;;;;;;5072587;28;20025;-56
2022/03/04 00:55:56;;;;;;;33.00;19.75;;;25.90;2201.60;;;;;;5072230;28;20379;-57
2022/03/04 00:58:22;;;;;;;34.92;20.23;;;25.90;2201.60;;;;;;5072615;28;20033;-62
2022/03/04 01:00:48;;;;;;;32.33;20.08;;;25.90;2201.60;;;;;;5072454;28;20029;-57
2022/03/04 01:03:13;;;;;;;31.02;17.17;;;25.70;2201.60;;;;;;5072776;28;20017;-57
2022/03/04 01:05:39;;;;;;;32.17;20.67;;;25.70;2201.60;;;;;;5072544;28;20020;-57
2022/03/04 01:08:05;;;;;;;32.03;17.10;;;25.70;2201.60;;;;;;5072314;28;20093;-58
2022/03/04 01:10:31;;;;;;;27.80;16.08;;;25.70;2201.60;;;;;;5072457;28;20063;-57
2022/03/04 01:12:57;;;;;;;32.85;18.05;;;25.70;2201.60;;;;;;5072019;28;20028;-57
2022/03/04 01:15:22;;;;;;;35.90;19.58;;;25.70;2201.60;;;;;;5072629;28;20028;-57
2022/03/04 01:17:48;;;;;;;26.65;16.15;;;25.90;2201.60;;;;;;5072342;28;20051;-63
2022/03/04 01:20:14;;;;;;;27.63;15.32;;;26.10;2201.60;;;;;;5072496;28;20021;-57
2022/03/04 01:22:40;;;;;;;26.08;14.38;;;26.30;2201.60;;;;;;5072397;28;20021;-62
2022/03/04 01:25:07;;;;;;;26.02;15.27;;;26.00;2201.60;;;;;;5072030;28;20031;-57
2022/03/04 01:27:33;;;;;;;23.77;15.18;;;25.80;2201.60;;;;;;5071104;28;20045;-62
2022/03/04 01:29:58;;;;;;;30.13;17.75;;;25.80;2201.60;;;;;;5072113;28;20029;-63
2022/03/04 01:32:24;;;;;;;27.42;16.20;;;25.70;2201.60;;;;;;5072093;28;20482;-57
2022/03/04 01:34:50;;;;;;;61.45;34.80;;;25.90;2201.60;;;;;;5071670;28;20029;-63
2022/03/04 01:37:16;;;;;;;43.78;26.48;;;26.10;2201.60;;;;;;5071872;28;20039;-57
2022/03/04 01:39:42;;;;;;;29.75;18.17;;;26.10;2201.60;;;;;;5072082;28;20085;-61
2022/03/04 01:42:08;;;;;;;33.85;19.45;;;26.00;2201.60;;;;;;5071668;28;20539;-57
2022/03/04 01:44:34;;;;;;;42.30;21.50;;;26.20;2201.60;;;;;;5071683;28;20032;-63
2022/03/04 01:47:00;;;;;;;39.45;21.38;;;26.30;2201.60;;;;;;5071563;28;20032;-57
2022/03/04 01:49:25;;;;;;;49.25;26.38;;;26.40;2201.60;;;;;;5071506;28;20394;-57
2022/03/04 01:51:51;;;;;;;53.72;28.88;;;26.50;2201.60;;;;;;5071590;28;20028;-56
2022/03/04 01:54:17;;;;;;;53.10;28.02;;;26.50;2201.60;;;;;;5071507;28;20056;-64
2022/03/04 01:56:42;;;;;;;46.70;22.98;;;26.40;2201.60;;;;;;5071560;28;20424;-57
2022/03/04 01:59:08;;;;;;;28.58;16.10;;;26.30;2201.60;;;;;;5071216;28;20040;-62
2022/03/04 02:01:36;;;;;;;51.28;26.73;;;26.40;2201.60;;;;;;5071467;28;20036;-57
2022/03/04 02:04:02;;;;;;;55.47;27.52;;;26.40;2201.60;;;;;;5071334;28;20496;-58
2022/03/04 02:06:28;;;;;;;30.08;18.83;;;26.50;2201.60;;;;;;5071198;28;20115;-63
2022/03/04 02:08:54;;;;;;;26.17;16.38;;;26.20;2201.60;;;;;;5071291;28;20174;-57
2022/03/04 02:11:20;;;;;;;27.50;15.45;;;26.20;2201.60;;;;;;5071023;28;20025;-57
2022/03/04 02:13:45;;;;;;;25.55;16.25;;;25.80;2201.60;;;;;;5070883;28;20391;-58
2022/03/04 02:16:21;;;;;;;28.90;15.23;;;0.90;2201.60;;;;;;5071245;28;20036;-63
2022/03/04 02:18:47;;;;;;;22.17;13.30;;;25.60;2201.60;;;;;;5071104;28;20382;-63
2022/03/04 02:21:13;;;;;;;25.83;15.27;;;25.60;2201.60;;;;;;5071112;28;20028;-58
2022/03/04 02:23:39;;;;;;;31.00;18.38;;;0.90;2201.60;;;;;;5070945;28;20035;-63
2022/03/04 02:26:06;;;;;;;23.80;15.20;;;0.70;2201.60;;;;;;5070945;28;20028;-59
2022/03/04 02:28:31;;;;;;;27.50;15.07;;;0.70;2201.60;;;;;;5070774;28;20060;-62
2022/03/04 02:30:57;;;;;;;28.48;15.68;;;0.70;2201.60;;;;;;5070955;28;20031;-63
2022/03/04 02:33:23;;;;;;;28.52;17.08;;;0.70;2201.60;;;;;;5071206;28;20359;-57
2022/03/04 02:35:49;;;;;;;29.88;14.73;;;0.70;2201.60;;;;;;5070522;28;20462;-61
2022/03/04 02:38:14;;;;;;;28.15;15.00;;;0.80;2201.60;;;;;;5070156;28;20021;-56
2022/03/04 02:40:40;;;;;;;24.15;13.90;;;0.90;2201.60;;;;;;5070516;28;20021;-57
2022/03/04 02:43:06;;;;;;;34.25;18.58;;;0.80;2201.60;;;;;;5070362;28;20031;-59
2022/03/04 02:45:33;;;;;;;30.80;18.15;;;0.60;2201.60;;;;;;5070538;28;20021;-56
2022/03/04 02:47:59;;;;;;;26.88;15.68;;;0.50;2201.60;;;;;;5070262;28;20029;-62
2022/03/04 02:50:25;;;;;;;33.22;16.45;;;0.50;2201.60;;;;;;5070765;28;20039;-62
2022/03/04 02:52:51;;;;;;;28.17;15.68;;;0.50;2201.60;;;;;;5070493;28;20470;-58
2022/03/04 02:55:16;;;;;;;30.17;14.85;;;0.50;2201.60;;;;;;5070366;28;20078;-56
2022/03/04 02:57:45;;;;;;;21.38;13.23;;;0.60;2201.60;;;;;;5070453;28;20060;-57
2022/03/04 03:00:12;;;;;;;31.02;15.25;;;0.60;2201.60;;;;;;5070423;28;20031;-58
2022/03/04 03:02:38;;;;;;;26.45;13.82;;;0.50;2201.60;;;;;;5070591;28;20055;-62
2022/03/04 03:05:04;;;;;;;29.27;14.00;;;0.50;2201.60;;;;;;5070307;28;20463;-56
2022/03/04 03:07:30;;;;;;;32.67;15.23;;;0.50;2201.60;;;;;;5070064;28;20036;-62
2022/03/04 03:09:56;;;;;;;24.92;14.80;;;0.50;2201.60;;;;;;5070192;28;20024;-56
2022/03/04 03:12:22;;;;;;;28.10;15.25;;;0.50;2201.60;;;;;;5070175;28;20037;-57
2022/03/04 03:14:48;;;;;;;22.27;14.55;;;0.50;2201.60;;;;;;5069967;28;20025;-56
2022/03/04 03:17:13;;;;;;;25.38;14.30;;;0.60;2201.60;;;;;;5070506;28;20033;-57
2022/03/04 03:19:39;;;;;;;24.23;13.68;;;0.40;2201.60;;;;;;5070095;28;20491;-57
2022/03/04 03:22:05;;;;;;;22.80;12.25;;;0.50;2201.60;;;;;;5070418;28;20525;-56
2022/03/04 03:24:31;;;;;;;26.08;13.68;;;0.50;2201.60;;;;;;5070271;28;20035;-56
2022/03/04 03:26:57;;;;;;;26.33;13.10;;;0.50;2201.60;;;;;;5069668;28;20123;-57
2022/03/04 03:29:22;;;;;;;24.98;14.45;;;0.50;2201.60;;;;;;5070142;28;20048;-56
2022/03/04 03:31:48;;;;;;;34.83;17.73;;;0.40;2201.60;;;;;;5070050;28;20024;-58
2022/03/04 03:34:14;;;;;;;27.48;16.10;;;0.40;2201.60;;;;;;5070013;28;20056;-58
2022/03/04 03:36:40;;;;;;;24.33;14.32;;;0.60;2201.60;;;;;;5069743;28;20187;-57
2022/03/04 03:39:08;;;;;;;29.35;16.52;;;0.50;2201.60;;;;;;5069951;28;20028;-60
2022/03/04 03:41:35;;;;;;;31.38;17.20;;;0.70;2201.60;;;;;;5069951;28;20036;-58
2022/03/04 03:44:00;;;;;;;25.60;15.65;;;0.90;2201.60;;;;;;5069683;28;20036;-61
2022/03/04 03:46:26;;;;;;;25.92;15.85;;;25.60;2201.60;;;;;;5069924;28;20028;-59
2022/03/04 03:48:52;;;;;;;30.67;15.90;;;25.60;2201.60;;;;;;5069985;28;20131;-59
2022/03/04 03:51:18;;;;;;;25.90;15.15;;;25.70;2201.60;;;;;;5073281;28;20055;-62
2022/03/04 03:53:43;;;;;;;24.00;14.50;;;25.80;2201.60;;;;;;5073872;28;20086;-57
2022/03/04 03:56:09;;;;;;;26.25;14.70;;;25.80;2201.60;;;;;;5073631;28;20029;-61
2022/03/04 03:58:35;;;;;;;47.55;22.50;;;25.70;2201.60;;;;;;5073691;28;20060;-57
2022/03/04 04:01:01;;;;;;;84.22;44.95;;;25.70;2201.60;;;;;;5073793;28;20020;-62
2022/03/04 04:03:26;;;;;;;56.83;27.60;;;25.60;2201.60;;;;;;5073867;28;20386;-62
2022/03/04 04:05:52;;;;;;;44.85;26.02;;;0.80;2201.60;;;;;;5073635;28;20025;-62
2022/03/04 04:08:18;;;;;;;65.35;33.38;;;0.80;2201.60;;;;;;5073505;28;20036;-62
2022/03/04 04:10:44;;;;;;;32.13;18.27;;;0.80;2201.60;;;;;;5073718;28;20033;-57
2022/03/04 04:13:11;;;;;;;61.15;34.20;;;0.60;2201.60;;;;;;5073760;28;20024;-61
2022/03/04 04:15:37;;;;;;;78.78;38.97;;;0.70;2201.60;;;;;;5073240;28;20086;-59
2022/03/04 04:18:03;;;;;;;66.88;39.58;;;0.80;2201.60;;;;;;5073464;28;20047;-60
2022/03/04 04:20:29;;;;;;;54.78;29.73;;;25.70;2201.60;;;;;;5073126;28;20033;-57
2022/03/04 04:22:55;;;;;;;37.60;19.85;;;25.80;2201.60;;;;;;5073438;28;20035;-61
2022/03/04 04:25:21;;;;;;;32.88;19.42;;;25.80;2201.60;;;;;;5073450;28;20029;-61
2022/03/04 04:27:46;;;;;;;37.00;19.80;;;25.80;2201.60;;;;;;5072651;28;20059;-57
2022/03/04 04:30:12;;;;;;;37.85;22.75;;;25.90;2201.60;;;;;;5073380;28;20355;-56
2022/03/04 04:32:38;;;;;;;34.28;21.38;;;25.80;2201.60;;;;;;5073004;28;20036;-56
2022/03/04 04:35:05;;;;;;;29.52;18.35;;;25.90;2201.60;;;;;;5073349;28;20035;-61
2022/03/04 04:37:30;;;;;;;38.20;19.85;;;25.80;2201.60;;;;;;5073320;28;20111;-58
2022/03/04 04:39:56;;;;;;;48.63;28.08;;;25.90;2201.60;;;;;;5072939;28;20439;-56
2022/03/04 04:42:22;;;;;;;43.70;26.45;;;25.80;2201.60;;;;;;5073008;28;20475;-57
2022/03/04 04:44:48;;;;;;;32.97;21.42;;;25.80;2201.60;;;;;;5072803;28;20060;-56
2022/03/04 04:47:14;;;;;;;40.20;20.80;;;25.80;2201.60;;;;;;5072782;28;20028;-55
2022/03/04 04:49:40;;;;;;;124.68;64.18;;;25.90;2201.60;;;;;;5073015;28;20028;-61
2022/03/04 04:52:06;;;;;;;66.60;35.75;;;25.70;2201.60;;;;;;5072652;28;20024;-56
2022/03/04 04:54:34;;;;;;;57.58;31.27;;;25.70;2201.60;;;;;;5072863;28;20463;-60
2022/03/04 04:57:00;;;;;;;53.38;28.83;;;25.80;2201.60;;;;;;5072382;28;20029;-61
2022/03/04 04:59:27;;;;;;;52.67;27.08;;;25.70;2201.60;;;;;;5072482;28;20082;-56
2022/03/04 05:01:52;;;;;;;41.95;22.30;;;25.90;2201.60;;;;;;5071944;28;20060;-56
2022/03/04 05:04:18;;;;;;;47.75;31.30;;;25.80;2201.60;;;;;;5072469;28;20059;-63
2022/03/04 05:06:44;;;;;;;93.82;47.75;;;25.80;2201.60;;;;;;5072729;28;20024;-58
2022/03/04 05:09:10;;;;;;;80.00;40.63;;;25.80;2201.60;;;;;;5072338;28;20036;-62
2022/03/04 05:11:35;;;;;;;54.78;32.15;;;25.80;2201.60;;;;;;5072294;28;20375;-57
2022/03/04 05:14:01;;;;;;;59.05;28.98;;;25.80;2201.60;;;;;;5072451;28;20063;-62
2022/03/04 05:16:27;;;;;;;53.15;26.60;;;25.80;2201.60;;;;;;5072216;28;20023;-64
2022/03/04 05:18:53;;;;;;;56.45;28.15;;;25.80;2201.60;;;;;;5072591;28;20021;-56
2022/03/04 05:21:19;;;;;;;44.70;24.85;;;25.70;2201.60;;;;;;5072066;28;20024;-57
2022/03/04 05:23:59;;;;;;;35.80;21.75;;;25.70;2201.60;;;;;;5072358;28;20048;-58
2022/03/04 05:26:33;;;;;;;36.67;24.35;;;25.80;2201.60;;;;;;5072088;28;20448;-56
2022/03/04 05:29:01;;;;;;;40.70;23.88;;;25.80;2201.60;;;;;;5071942;28;20504;-56
2022/03/04 05:31:27;;;;;;;36.65;19.83;;;25.70;2201.60;;;;;;5071943;28;20153;-55
2022/03/04 05:33:53;;;;;;;56.92;38.22;;;0.90;2201.60;;;;;;5072261;28;20025;-61
2022/03/04 05:36:20;;;;;;;44.25;26.73;;;0.70;2201.60;;;;;;5071769;28;20025;-62
2022/03/04 05:38:46;;;;;;;36.75;18.40;;;0.70;2201.60;;;;;;5071549;28;20032;-56
2022/03/04 05:41:12;;;;;;;33.15;17.02;;;0.70;2201.60;;;;;;5071980;28;20024;-60
2022/03/04 05:43:38;;;;;;;25.25;15.48;;;0.60;2201.60;;;;;;5071617;28;20039;-56
2022/03/04 05:46:05;;;;;;;26.35;14.35;;;0.50;2201.60;;;;;;5071988;28;20032;-56
2022/03/04 05:48:32;;;;;;;36.00;16.65;;;0.50;2201.60;;;;;;5071803;28;20418;-63
2022/03/04 05:50:57;;;;;;;30.20;15.65;;;0.50;2201.60;;;;;;5071633;28;20048;-58
2022/03/04 05:53:23;;;;;;;33.25;16.83;;;0.60;2201.60;;;;;;5071895;28;20459;-60
2022/03/04 05:55:49;;;;;;;29.25;16.13;;;0.80;2201.60;;;;;;5071583;28;20029;-57
2022/03/04 05:58:15;;;;;;;32.33;17.05;;;0.80;2201.60;;;;;;5071755;28;20125;-58
2022/03/04 06:00:40;;;;;;;29.25;18.05;;;0.90;2201.60;;;;;;5071621;28;20020;-63
2022/03/04 06:03:07;;;;;;;32.88;20.02;;;25.60;2201.60;;;;;;5071467;28;20039;-61
2022/03/04 06:05:33;;;;;;;34.00;20.33;;;25.70;2201.60;;;;;;5071760;28;20079;-60
2022/03/04 06:07:59;;;;;;;42.53;24.73;;;25.80;2201.60;;;;;;5071354;28;20124;-58
2022/03/04 06:10:25;;;;;;;30.05;17.65;;;26.00;2201.60;;;;;;5071258;28;20729;-60
2022/03/04 06:12:51;;;;;;;32.70;19.48;;;26.00;2201.60;;;;;;5070946;28;20027;-57
2022/03/04 06:15:17;;;;;;;33.17;17.40;;;25.90;2201.60;;;;;;5070747;28;20479;-61
2022/03/04 06:17:50;;;;;;;32.08;18.10;;;26.00;2201.60;;;;;;5071333;28;20032;-59
2022/03/04 06:20:17;;;;;;;34.22;18.33;;;26.00;2201.60;;;;;;5069705;28;20040;-58
2022/03/04 06:22:43;;;;;;;32.88;17.75;;;26.00;2201.60;;;;;;5071199;28;20474;-62
2022/03/04 06:25:10;;;;;;;27.77;17.02;;;26.00;2201.60;;;;;;5071061;28;20115;-64
2022/03/04 06:27:50;;;;;;;32.60;17.75;;;26.10;2201.60;;;;;;5070528;28;20045;-59
2022/03/04 06:30:16;;;;;;;27.63;17.55;;;26.30;2201.60;;;;;;5070537;28;20482;-56
2022/03/04 06:32:41;;;;;;;31.00;19.23;;;52.10;2227.20;;;;;;5071184;28;20056;-63
2022/03/04 06:35:07;;;;;;;29.83;18.58;;;77.70;2227.20;;;;;;5069466;28;20025;-63
2022/03/04 06:37:33;;;;;;;32.65;19.40;;;128.00;2201.60;;;;;;5070764;28;20070;-62
2022/03/04 06:39:59;;;;;;;32.92;17.13;;;153.60;2048.00;;;;;;5070549;28;20542;-57
2022/03/04 06:42:25;;;;;;;32.55;21.70;;;154.10;1945.60;;;;;;5070409;28;20119;-62
2022/03/04 06:44:50;;;;;;;32.25;20.92;;;154.00;1920.00;;;;;;5069352;28;20047;-62
2022/03/04 06:47:16;;;;;;;30.33;22.35;;;154.50;1868.80;;;;;;5070170;28;20028;-57
2022/03/04 06:49:42;;;;;;;31.80;20.50;;;179.60;1843.20;;;;;;5070607;28;20032;-57
2022/03/04 06:52:08;;;;;;;31.27;19.25;;;180.10;1766.40;;;;;;5069982;28;20379;-57
2022/03/04 06:54:36;;;;;;;27.38;20.95;;;230.70;1638.40;;;;;;5070294;28;20040;-57
2022/03/04 06:57:02;;;;;;;30.60;21.55;;;256.70;1536.00;;;;;;5069972;28;20032;-57
2022/03/04 06:59:28;;;;;;;29.10;21.73;;;282.10;1459.20;;;;;;5069968;28;20493;-58
2022/03/04 07:01:54;;;;;;;36.78;26.73;;;282.50;1433.60;;;;;;5070626;28;20028;-57
2022/03/04 07:04:19;;;;;;;40.92;32.40;;;308.00;1382.40;;;;;;5070307;28;20467;-57
2022/03/04 07:06:45;;;;;;;26.13;19.73;;;333.30;1356.80;;;;;;5070303;28;20036;-57
2022/03/04 07:09:11;;;;;;;33.00;26.67;;;358.80;1280.00;;;;;;5070326;28;20066;-57
2022/03/04 07:11:36;;;;;;;32.25;23.23;;;384.00;1228.80;;;;;;5070057;28;20021;-58
2022/03/04 07:14:02;;;;;;;31.65;23.00;;;359.30;1228.80;;;;;;5070134;28;20036;-58
2022/03/04 07:16:28;;;;;;;36.40;24.55;;;358.80;1228.80;;;;;;5070185;28;20028;-57
2022/03/04 07:18:54;;;;;;;37.08;25.15;;;333.70;1280.00;;;;;;5070137;28;20463;-57
2022/03/04 07:21:19;;;;;;;42.55;28.95;;;332.90;1331.20;;;;;;5069922;28;20052;-56
2022/03/04 07:23:45;;;;;;;42.60;28.73;;;282.50;1356.80;;;;;;5069910;28;20024;-58
2022/03/04 07:26:12;;;;;;;37.15;27.10;;;281.70;1408.00;;;;;;5069305;28;20020;-57
2022/03/04 07:28:37;;;;;;;33.13;21.58;;;256.60;1408.00;;;;;;5069685;28;20043;-56
2022/03/04 07:31:03;;;;;;;43.95;30.50;;;256.30;1433.60;;;;;;5069881;28;20103;-58
2022/03/04 07:33:29;;;;;;;41.97;26.38;;;256.00;1459.20;;;;;;5069767;28;20059;-57
2022/03/04 07:35:55;;;;;;;43.40;35.47;;;282.00;1408.00;;;;;;5070011;28;20148;-56
2022/03/04 07:38:21;;;;;;;31.08;22.45;;;281.90;1408.00;;;;;;5070193;28;20025;-57
2022/03/04 07:40:47;;;;;;;35.17;25.98;;;307.40;1382.40;;;;;;5068037;28;20051;-58
2022/03/04 07:43:13;;;;;;;39.85;28.75;;;332.90;1356.80;;;;;;5069904;28;20040;-57
2022/03/04 07:45:38;;;;;;;39.47;27.90;;;358.40;1280.00;;;;;;5069777;28;20468;-57
2022/03/04 07:48:04;;;;;;;38.70;26.77;;;358.40;1305.60;;;;;;5069716;28;20119;-56
2022/03/04 07:50:30;;;;;;;43.35;28.50;;;333.40;1305.60;;;;;;5069545;28;20025;-57
2022/03/04 07:52:56;;;;;;;29.27;22.27;;;332.80;1331.20;;;;;;5069621;28;20032;-57
2022/03/04 07:55:26;;;;;;;32.90;21.85;;;333.30;1305.60;;;;;;5069858;28;20058;-57
2022/03/04 07:57:53;;;;;;;29.17;20.75;;;333.10;1331.20;;;;;;5069672;28;20575;-57
2022/03/04 08:00:24;;;;;;;27.73;21.90;;;333.20;1331.20;;;;;;5068359;28;20038;-60
2022/03/04 08:02:51;;;;;;;29.10;22.35;;;333.10;1305.60;;;;;;5068135;28;20020;-60
2022/03/04 08:05:17;;;;;;;28.30;20.83;;;307.40;1356.80;;;;;;5068186;28;20502;-61
2022/03/04 08:07:43;;;;;;;27.45;20.65;;;282.40;1356.80;;;;;;5068712;28;20037;-57
2022/03/04 08:10:10;;;;;;;28.35;20.73;;;282.10;1382.40;;;;;;5068541;28;20471;-56
2022/03/04 08:12:37;;;;;;;29.83;19.95;;;256.90;1408.00;;;;;;5069112;28;20052;-57
2022/03/04 08:15:04;;;;;;;29.85;19.58;;;256.40;1433.60;;;;;;5069469;28;20037;-57
2022/03/04 08:17:31;;;;;;;35.50;20.70;;;256.30;1868.80;;;;;;5069325;28;20035;-57
2022/03/04 08:19:56;;;;;;;30.88;20.48;;;231.20;1484.80;;;;;;5069393;28;20078;-58
2022/03/04 08:22:22;;;;;;;27.88;20.90;;;231.30;1459.20;;;;;;5069605;28;20029;-60
2022/03/04 08:24:48;;;;;;;31.13;20.25;;;256.50;1459.20;;;;;;5069208;28;20374;-57
2022/03/04 08:27:13;;;;;;;37.75;27.10;;;256.50;1459.20;;;;;;5069104;28;20449;-58
2022/03/04 08:29:39;;;;;;;40.50;27.13;;;256.70;1433.60;;;;;;5069094;28;20444;-58
2022/03/04 08:32:06;;;;;;;41.70;28.70;;;256.80;1433.60;;;;;;5069362;28;20021;-59
2022/03/04 08:34:32;;;;;;;45.95;31.15;;;281.70;1433.60;;;;;;5069600;28;20517;-57
2022/03/04 08:36:57;;;;;;;38.78;23.55;;;281.70;1433.60;;;;;;5070061;28;20025;-59
2022/03/04 08:39:23;;;;;;;41.90;23.27;;;281.80;1433.60;;;;;;5072951;28;20024;-57
2022/03/04 08:41:49;;;;;;;37.90;28.05;;;281.80;1433.60;;;;;;5072763;28;20024;-58
2022/03/04 08:44:14;;;;;;;28.23;18.70;;;282.40;1408.00;;;;;;5072893;28;20749;-57
2022/03/04 08:46:40;;;;;;;32.60;22.63;;;308.10;1331.20;;;;;;5072921;28;20020;-57
2022/03/04 08:49:07;;;;;;;30.45;23.02;;;358.70;1305.60;;;;;;5072490;28;20079;-58
2022/03/04 08:51:32;;;;;;;34.65;25.05;;;384.10;1228.80;;;;;;5072761;28;20032;-58
2022/03/04 08:53:58;;;;;;;48.90;38.05;;;435.20;1152.00;;;;;;5072629;28;20074;-59
2022/03/04 08:56:24;;;;;;;54.75;40.35;;;461.20;1100.80;;;;;;5072650;28;20107;-57
2022/03/04 08:58:50;;;;;;;32.38;25.42;;;486.40;1049.60;;;;;;5072336;28;20478;-58
2022/03/04 09:01:16;;;;;;;28.92;25.55;;;486.80;998.40;;;;;;5072374;28;20043;-58
2022/03/04 09:03:42;;;;;;;29.40;24.23;;;487.30;998.40;;;;;;5072681;28;20038;-58
2022/03/04 09:06:07;;;;;;;32.08;26.10;;;487.30;972.80;;;;;;5072476;28;20023;-59
2022/03/04 09:08:33;;;;;;;30.73;25.67;;;512.60;947.20;;;;;;5072614;28;20123;-58
2022/03/04 09:10:59;;;;;;;27.10;23.13;;;487.30;972.80;;;;;;5072336;28;20048;-58
2022/03/04 09:13:25;;;;;;;27.95;24.95;;;487.30;972.80;;;;;;5072429;28;20031;-60
2022/03/04 09:15:51;;;;;;;51.13;32.28;;;487.00;998.40;;;;;;5072254;28;20025;-61
2022/03/04 09:18:17;;;;;;;29.10;24.52;;;486.90;972.80;;;;;;5072025;28;20024;-58
2022/03/04 09:20:43;;;;;;;42.13;33.92;;;461.50;998.40;;;;;;5072542;28;20032;-56
2022/03/04 09:23:09;;;;;;;33.80;24.75;;;436.10;1024.00;;;;;;5072146;28;20113;-58
2022/03/04 09:25:35;;;;;;;31.17;25.40;;;435.60;1075.20;;;;;;5072019;28;20060;-58
2022/03/04 09:28:03;;;;;;;29.50;25.85;;;410.00;1100.80;;;;;;5071951;28;20087;-58
2022/03/04 09:30:31;;;;;;;35.15;27.58;;;384.40;1126.40;;;;;;5071979;28;20032;-58
2022/03/04 09:32:57;;;;;;;36.40;30.27;;;359.00;1152.00;;;;;;5071820;28;20033;-58
2022/03/04 09:35:23;;;;;;;38.95;29.73;;;333.60;1203.20;;;;;;5072016;28;20539;-58
2022/03/04 09:37:49;;;;;;;40.58;29.17;;;333.30;1228.80;;;;;;5071740;28;20020;-57
2022/03/04 09:40:14;;;;;;;38.10;27.73;;;333.10;1254.40;;;;;;5071972;28;20475;-57
2022/03/04 09:42:41;;;;;;;34.15;25.42;;;332.80;1280.00;;;;;;5071858;28;20487;-57
2022/03/04 09:45:07;;;;;;;31.08;23.80;;;307.80;1280.00;;;;;;5071546;28;20360;-57
2022/03/04 09:47:34;;;;;;;39.03;28.83;;;307.90;1280.00;;;;;;5071355;28;20037;-57
2022/03/04 09:50:02;;;;;;;45.45;30.30;;;307.80;1280.00;;;;;;5071237;28;20029;-58
2022/03/04 09:52:30;;;;;;;31.05;22.52;;;307.60;1305.60;;;;;;5071477;28;20028;-56
2022/03/04 09:54:56;;;;;;;29.95;20.98;;;307.40;1280.00;;;;;;5071435;28;20029;-59
2022/03/04 09:57:22;;;;;;;29.58;21.23;;;307.30;1305.60;;;;;;5071494;28;20028;-56
2022/03/04 09:59:48;;;;;;;154.50;90.13;;;307.20;1305.60;;;;;;5071280;28;20033;-57
2022/03/04 10:02:15;;;;;;;41.90;27.05;;;307.30;1305.60;;;;;;5071504;28;20493;-57
2022/03/04 10:04:41;;;;;;;40.53;23.77;;;282.50;1280.00;;;;;;5071450;28;20039;-57
2022/03/04 10:07:15;;;;;;;28.60;20.45;;;282.50;1280.00;;;;;;5071302;28;20021;-59
2022/03/04 10:09:47;;;;;;;51.35;27.25;;;282.20;1331.20;;;;;;5071183;28;20029;-57
2022/03/04 10:12:15;;;;;;;205.38;120.28;;;282.50;1331.20;;;;;;5071166;28;20031;-57
2022/03/04 10:14:58;;;;;;;76.70;44.28;;;282.20;1305.60;;;;;;5071188;28;20070;-55
2022/03/04 10:17:26;;;;;;;75.05;46.63;;;282.30;1331.20;;;;;;5070990;28;20024;-56
2022/03/04 10:19:56;;;;;;;53.72;34.38;;;282.30;1305.60;;;;;;5071089;28;20052;-57
2022/03/04 10:22:23;;;;;;;47.45;33.22;;;282.40;1305.60;;;;;;5071209;28;20031;-57
2022/03/04 10:24:49;;;;;;;58.67;41.80;;;282.30;1331.20;;;;;;5070819;28;20356;-57
2022/03/04 10:27:16;;;;;;;63.83;40.00;;;307.30;1305.60;;;;;;5070728;28;20051;-60
2022/03/04 10:29:45;;;;;;;57.15;37.28;;;282.50;1280.00;;;;;;5070863;28;20406;-57
2022/03/04 10:32:24;;;;;;;49.08;33.22;;;282.30;1280.00;;;;;;5070874;28;20104;-59
2022/03/04 10:35:00;;;;;;;46.63;32.15;;;282.10;1254.40;;;;;;5069701;28;20028;-59
2022/03/04 10:37:44;;;;;;;44.45;31.98;;;282.10;1305.60;;;;;;5069959;28;20078;-56
2022/03/04 10:40:18;;;;;;;41.00;27.33;;;282.10;1331.20;;;;;;5070596;28;20024;-59
2022/03/04 10:42:52;;;;;;;148.75;104.38;;;282.10;1305.60;;;;;;5070726;28;20033;-57
2022/03/04 10:45:27;;;;;;;67.60;45.17;;;282.20;1280.00;;;;;;5070050;28;20119;-60
2022/03/04 10:47:55;;;;;;;36.35;23.88;;;282.20;1254.40;;;;;;5068919;28;20032;-57
2022/03/04 10:50:26;;;;;;;65.88;42.80;;;282.20;1228.80;;;;;;5069368;28;20504;-57
2022/03/04 10:52:58;;;;;;;47.58;34.20;;;282.20;1228.80;;;;;;5069227;28;20486;-60
2022/03/04 10:55:40;;;;;;;55.70;39.83;;;282.20;1228.80;;;;;;5069569;28;20455;-57
2022/03/04 10:58:18;;;;;;;35.03;24.42;;;282.00;1228.80;;;;;;5067781;28;20052;-57
2022/03/04 11:00:56;;;;;;;51.08;37.38;;;282.10;1254.40;;;;;;5065417;28;20505;-56
2022/03/04 11:03:29;;;;;;;44.10;30.83;;;282.10;1228.80;;;;;;5064323;28;20020;-56
2022/03/04 11:06:00;;;;;;;28.48;19.20;;;282.30;1203.20;;;;;;5066692;28;20699;-61
2022/03/04 11:08:27;;;;;;;27.60;18.92;;;282.30;1228.80;;;;;;5065489;28;20036;-57
2022/03/04 11:10:54;;;;;;;58.42;40.15;;;282.20;1254.40;;;;;;5067822;28;20028;-55
2022/03/04 11:13:20;;;;;;;77.55;55.38;;;282.20;1228.80;;;;;;5066432;28;20111;-57
2022/03/04 11:15:47;;;;;;;96.07;69.40;;;282.20;1228.80;;;;;;5065561;28;20560;-56
2022/03/04 11:18:17;;;;;;;56.88;46.53;;;282.10;1228.80;;;;;;5066241;28;20111;-60
2022/03/04 11:20:45;;;;;;;30.23;18.27;;;282.20;1228.80;;;;;;5067439;28;20024;-60
2022/03/04 11:23:19;;;;;;;64.57;47.00;;;282.00;1280.00;;;;;;5068355;28;20024;-55
2022/03/04 11:25:51;;;;;;;48.83;33.97;;;281.70;1254.40;;;;;;5068190;28;20031;-58
2022/03/04 11:28:19;;;;;;;36.25;27.40;;;281.80;1254.40;;;;;;5066692;28;20044;-57
2022/03/04 11:30:51;;;;;;;37.20;24.88;;;281.90;1254.40;;;;;;5068243;28;20045;-57
2022/03/04 11:33:29;;;;;;;54.10;39.80;;;281.90;1254.40;;;;;;5068342;28;20024;-56
2022/03/04 11:35:55;;;;;;;43.53;29.42;;;281.80;1254.40;;;;;;5064375;28;20029;-56
2022/03/04 11:38:50;;;;;;;55.00;27.38;;;256.70;1280.00;;;;;;5068654;28;20066;-56
2022/03/04 11:41:19;;;;;;;36.42;21.10;;;281.60;1331.20;;;;;;5055507;28;20047;-56
2022/03/04 11:43:51;;;;;;;46.85;33.40;;;281.70;1305.60;;;;;;5068637;28;20035;-60
2022/03/04 11:46:29;;;;;;;29.23;18.63;;;281.80;1280.00;;;;;;5068605;28;20020;-56
2022/03/04 11:49:30;;;;;;;36.50;23.10;;;281.70;1305.60;;;;;;5068523;28;20124;-55
2022/03/04 11:52:11;;;;;;;39.42;22.55;;;282.10;1331.20;;;;;;5067038;28;20506;-56
2022/03/04 11:54:45;;;;;;;41.83;26.10;;;282.00;1305.60;;;;;;5066788;28;20103;-58
2022/03/04 11:57:25;;;;;;;46.92;29.65;;;281.90;1331.20;;;;;;5065948;28;20082;-58
2022/03/04 12:00:01;;;;;;;51.08;37.15;;;282.10;1305.60;;;;;;5066306;28;20029;-56
2022/03/04 12:03:13;;;;;;;42.60;29.33;;;281.60;1305.60;;;;;;5065488;28;20016;-59
2022/03/04 12:05:45;;;;;;;36.58;21.88;;;282.00;1280.00;;;;;;4986779;28;20029;-55
2022/03/04 12:08:13;;;;;;;39.22;27.35;;;281.90;1305.60;;;;;;4984756;28;20556;-56